createdAt,value
2022-12-04T00:01:16.583Z,101696.69
2022-12-04T00:03:44.444Z,101687.03
2022-12-04T00:06:14.349Z,101687.22
2022-12-04T00:08:42.577Z,101687.53
2022-12-04T00:11:11.914Z,101691.72
2022-12-04T00:13:40.063Z,101685.72
2022-12-04T00:16:12.062Z,101672.72
2022-12-04T00:18:39.812Z,101674.22
2022-12-04T00:21:08.819Z,101669.38
2022-12-04T00:23:37.981Z,101673.72
2022-12-04T00:26:10.820Z,101673.88
2022-12-04T00:28:38.833Z,101673.88
2022-12-04T00:31:07.902Z,101671.06
2022-12-04T00:33:37.549Z,101668.22
2022-12-04T00:36:07.478Z,101663.88
2022-12-04T00:38:35.587Z,101667.72
2022-12-04T00:41:03.297Z,101678.56
2022-12-04T00:43:32.156Z,101682.41
2022-12-04T00:45:59.890Z,101685.88
2022-12-04T00:48:28.032Z,101675.22
2022-12-04T00:50:59.014Z,101683.88
2022-12-04T00:53:26.700Z,101684.72
2022-12-04T00:55:54.362Z,101676.91
2022-12-04T00:58:22.044Z,101677.88
2022-12-04T01:00:49.768Z,101683.88
2022-12-04T01:03:17.591Z,101669.91
2022-12-04T01:05:46.735Z,101688.38
2022-12-04T01:08:15.804Z,101684.22
2022-12-04T01:10:43.533Z,101686.91
2022-12-04T01:13:11.421Z,101684.22
2022-12-04T01:15:40.371Z,101685.22
2022-12-04T01:18:08.517Z,101684.22
2022-12-04T01:20:36.205Z,101688.91
2022-12-04T01:23:04.363Z,101689.06
2022-12-04T01:25:33.715Z,101687.22
2022-12-04T01:28:01.436Z,101685.22
2022-12-04T01:30:29.577Z,101687.22
2022-12-04T01:32:57.247Z,101684.72
2022-12-04T01:35:24.917Z,101681.22
2022-12-04T01:37:52.584Z,101684.91
2022-12-04T01:40:21.131Z,101684.91
2022-12-04T01:42:50.134Z,101681.22
2022-12-04T01:45:39.632Z,101685.41
2022-12-04T01:48:13.885Z,101678.41
2022-12-04T01:50:42.570Z,101680.22
2022-12-04T01:53:10.375Z,101668.06
2022-12-04T01:55:38.344Z,101670.75
2022-12-04T01:58:08.474Z,101672.56
2022-12-04T02:00:36.277Z,101673.56
2022-12-04T02:03:04.099Z,101672.75
2022-12-04T02:05:31.766Z,101670.25
2022-12-04T02:08:03.160Z,101667.75
2022-12-04T02:10:41.189Z,101662.91
2022-12-04T02:13:17.925Z,101669.41
2022-12-04T02:15:52.754Z,101671.91
2022-12-04T02:18:30.439Z,101665.91
2022-12-04T02:21:06.921Z,101667.06
2022-12-04T02:23:56.946Z,101665.25
2022-12-04T02:26:40.979Z,101666.91
2022-12-04T02:29:17.877Z,101672.91
2022-12-04T02:31:52.501Z,101667.56
2022-12-04T02:34:27.431Z,101657.75
2022-12-04T02:37:00.925Z,101657.91
2022-12-04T02:39:36.426Z,101660.56
2022-12-04T02:42:09.116Z,101666.91
2022-12-04T02:44:42.585Z,101650.91
2022-12-04T02:47:13.637Z,101654.59
2022-12-04T02:49:46.120Z,101664.41
2022-12-04T02:52:19.398Z,101656.75
2022-12-04T02:54:51.544Z,101657.41
2022-12-04T02:57:23.234Z,101649.25
2022-12-04T02:59:55.006Z,101655.75
2022-12-04T03:02:29.443Z,101668.25
2022-12-04T03:05:01.947Z,101664.25
2022-12-04T03:07:36.327Z,101664.91
2022-12-04T03:10:10.956Z,101665.09
2022-12-04T03:12:43.630Z,101656.91
2022-12-04T03:15:19.161Z,101662.09
2022-12-04T03:17:53.545Z,101658.75
2022-12-04T03:20:23.021Z,101653.59
2022-12-04T03:22:55.570Z,101653.41
2022-12-04T03:25:36.247Z,101645.25
2022-12-04T03:28:08.405Z,101650.94
2022-12-04T03:30:45.303Z,101648.44
2022-12-04T03:33:16.274Z,101643.94
2022-12-04T03:35:48.655Z,101652.94
2022-12-04T03:38:21.526Z,101647.59
2022-12-04T03:40:55.569Z,101643.25
2022-12-04T03:43:29.105Z,101644.09
2022-12-04T03:46:04.387Z,101649.09
2022-12-04T03:48:39.869Z,101644.25
2022-12-04T03:51:19.370Z,101637.94
2022-12-04T03:53:52.502Z,101636.28
2022-12-04T03:56:23.978Z,101638.94
2022-12-04T03:58:56.815Z,101625.94
2022-12-04T04:01:34.047Z,101635.44
2022-12-04T04:04:05.166Z,101638.09
2022-12-04T04:06:39.990Z,101636.44
2022-12-04T04:09:15.485Z,101643.25
2022-12-04T04:11:48.493Z,101634.59
2022-12-04T04:14:39.917Z,101650.75
2022-12-04T04:17:37.943Z,101651.94
2022-12-04T04:20:27.681Z,101639.44
2022-12-04T04:23:17.138Z,101641.44
2022-12-04T04:25:46.642Z,101644.94
2022-12-04T04:28:34.967Z,101640.44
2022-12-04T04:31:11.175Z,101638.44
2022-12-04T04:33:49.365Z,101636.78
2022-12-04T04:36:24.442Z,101637.78
2022-12-04T04:39:01.839Z,101640.59
2022-12-04T04:41:37.408Z,101635.63
2022-12-04T04:44:16.476Z,101636.09
2022-12-04T04:46:49.020Z,101635.78
2022-12-04T04:49:19.522Z,101635.28
2022-12-04T04:51:48.246Z,101633.28
2022-12-04T04:54:17.842Z,101640.59
2022-12-04T04:56:47.331Z,101638.78
2022-12-04T04:59:16.027Z,101642.09
2022-12-04T05:01:46.885Z,101645.94
2022-12-04T05:04:14.838Z,101644.28
2022-12-04T05:06:43.866Z,101638.94
2022-12-04T05:09:11.590Z,101646.28
2022-12-04T05:11:39.304Z,101642.78
2022-12-04T05:14:07.025Z,101641.94
2022-12-04T05:16:34.759Z,101656.09
2022-12-04T05:19:20.310Z,101648.78
2022-12-04T05:21:49.332Z,101643.59
2022-12-04T05:24:16.968Z,101653.44
2022-12-04T05:26:44.775Z,101638.28
2022-12-04T05:29:12.465Z,101643.44
2022-12-04T05:31:40.194Z,101638.94
2022-12-04T05:34:07.917Z,101642.44
2022-12-04T05:36:35.554Z,101638.09
2022-12-04T05:39:04.751Z,101644.28
2022-12-04T05:41:32.437Z,101641.94
2022-12-04T05:44:00.120Z,101634.94
2022-12-04T05:46:27.823Z,101632.13
2022-12-04T05:48:55.551Z,101632.28
2022-12-04T05:51:23.191Z,101626.78
2022-12-04T05:53:53.002Z,101626.94
2022-12-04T05:56:22.496Z,101622.78
2022-12-04T05:58:50.157Z,101625.44
2022-12-04T06:01:20.344Z,101624.81
2022-12-04T06:03:48.002Z,101620.28
2022-12-04T06:06:21.433Z,101616.94
2022-12-04T06:08:50.647Z,101619.56
2022-12-04T06:11:20.974Z,101611.88
2022-12-04T06:13:50.212Z,101625.16
2022-12-04T06:16:20.324Z,101614.97
2022-12-04T06:18:51.567Z,101625.91
2022-12-04T06:21:20.623Z,101611.66
2022-12-04T06:23:48.728Z,101617.41
2022-12-04T06:26:16.649Z,101613.78
2022-12-04T06:28:44.532Z,101610.53
2022-12-04T06:31:15.901Z,101619.97
2022-12-04T06:33:43.705Z,101620.25
2022-12-04T06:36:13.377Z,101623.94
2022-12-04T06:38:41.565Z,101626.03
2022-12-04T06:41:11.049Z,101622.81
2022-12-04T06:43:38.896Z,101619.59
2022-12-04T06:46:08.552Z,101621.50
2022-12-04T06:48:38.261Z,101636.91
2022-12-04T06:51:08.270Z,101633.28
2022-12-04T06:53:36.477Z,101633.47
2022-12-04T06:56:18.077Z,101615.50
2022-12-04T06:58:46.005Z,101634.50
2022-12-04T07:01:16.138Z,101633.16
2022-12-04T07:03:51.040Z,101631.00
2022-12-04T07:06:22.008Z,101636.84
2022-12-04T07:08:52.791Z,101643.53
2022-12-04T07:11:22.055Z,101637.22
2022-12-04T07:13:50.098Z,101651.56
2022-12-04T07:16:20.740Z,101651.06
2022-12-04T07:18:53.285Z,101648.56
2022-12-04T07:21:23.041Z,101655.91
2022-12-04T07:23:51.720Z,101656.91
2022-12-04T07:26:19.945Z,101656.22
2022-12-04T07:28:48.101Z,101666.91
2022-12-04T07:31:17.928Z,101650.06
2022-12-04T07:33:46.665Z,101665.91
2022-12-04T07:36:19.350Z,101661.91
2022-12-04T07:38:47.961Z,101658.38
2022-12-04T07:41:16.682Z,101660.34
2022-12-04T07:43:44.665Z,101664.84
2022-12-04T07:46:14.613Z,101660.09
2022-12-04T07:48:42.413Z,101662.88
2022-12-04T07:51:12.252Z,101654.16
2022-12-04T07:53:42.021Z,101664.63
2022-12-04T07:56:11.959Z,101663.50
2022-12-04T07:58:40.153Z,101670.53
2022-12-04T08:01:10.025Z,101668.06
2022-12-04T08:03:42.114Z,101671.78
2022-12-04T08:06:13.817Z,101672.97
2022-12-04T08:08:42.887Z,101675.50
2022-12-04T08:11:12.633Z,101682.53
2022-12-04T08:13:40.387Z,101681.03
2022-12-04T08:16:10.941Z,101681.34
2022-12-04T08:18:39.964Z,101681.03
2022-12-04T08:21:10.192Z,101685.69
2022-12-04T08:23:41.375Z,101679.88
2022-12-04T08:26:11.095Z,101684.53
2022-12-04T08:28:38.846Z,101684.88
2022-12-04T08:31:08.655Z,101679.06
2022-12-04T08:33:36.651Z,101675.56
2022-12-04T08:36:07.552Z,101676.72
2022-12-04T08:38:35.671Z,101682.22
2022-12-04T08:41:04.327Z,101674.91
2022-12-04T08:43:33.857Z,101672.41
2022-12-04T08:46:03.897Z,101675.06
2022-12-04T08:48:32.372Z,101674.06
2022-12-04T08:51:00.448Z,101674.22
2022-12-04T08:53:28.451Z,101677.91
2022-12-04T08:55:56.093Z,101671.75
2022-12-04T08:58:24.464Z,101662.91
2022-12-04T09:00:53.500Z,101666.56
2022-12-04T09:03:26.210Z,101662.25
2022-12-04T09:06:00.182Z,101673.56
2022-12-04T09:08:28.041Z,101682.41
2022-12-04T09:10:55.785Z,101670.75
2022-12-04T09:13:23.481Z,101677.56
2022-12-04T09:15:51.133Z,101678.25
2022-12-04T09:18:20.169Z,101683.91
2022-12-04T09:20:56.528Z,101687.41
2022-12-04T09:23:24.200Z,101678.75
2022-12-04T09:25:52.234Z,101683.91
2022-12-04T09:28:20.446Z,101681.75
2022-12-04T09:30:57.556Z,101692.56
2022-12-04T09:33:26.876Z,101685.72
2022-12-04T09:35:54.605Z,101694.72
2022-12-04T09:38:22.339Z,101681.03
2022-12-04T09:40:59.091Z,101682.72
2022-12-04T09:43:33.314Z,101676.88
2022-12-04T09:46:08.820Z,101670.72
2022-12-04T09:48:42.959Z,101671.69
2022-12-04T09:51:18.717Z,101668.34
2022-12-04T09:53:49.834Z,101681.97
2022-12-04T09:56:20.763Z,101687.59
2022-12-04T09:58:51.904Z,101685.84
2022-12-04T10:01:24.607Z,101686.59
2022-12-04T10:03:56.926Z,101692.69
2022-12-04T10:06:33.262Z,101695.09
2022-12-04T10:09:04.915Z,101694.47
2022-12-04T10:11:45.586Z,101685.25
2022-12-04T10:14:38.825Z,101680.97
2022-12-04T10:17:32.242Z,101676.13
2022-12-04T10:20:12.771Z,101669.75
2022-12-04T10:22:54.655Z,101677.00
2022-12-04T10:25:23.432Z,101679.22
2022-12-04T10:27:56.944Z,101672.94
2022-12-04T10:30:27.026Z,101674.44
2022-12-04T10:32:59.145Z,101686.31
2022-12-04T10:35:30.997Z,101684.59
2022-12-04T10:38:04.133Z,101687.22
2022-12-04T10:40:36.775Z,101692.47
2022-12-04T10:43:13.141Z,101684.19
2022-12-04T10:45:40.917Z,101682.59
2022-12-04T10:48:13.309Z,101685.84
2022-12-04T10:50:42.390Z,101680.69
2022-12-04T10:53:14.091Z,101681.31
2022-12-04T10:55:42.242Z,101666.38
2022-12-04T10:58:16.817Z,101667.78
2022-12-04T11:00:46.795Z,101662.84
2022-12-04T11:03:25.752Z,101668.38
2022-12-04T11:05:59.362Z,101670.75
2022-12-04T11:08:32.049Z,101661.59
2022-12-04T11:11:02.365Z,101660.94
2022-12-04T11:13:30.320Z,101656.09
2022-12-04T11:15:59.297Z,101641.97
2022-12-04T11:18:28.641Z,101649.97
2022-12-04T11:21:00.512Z,101649.50
2022-12-04T11:23:33.142Z,101649.00
2022-12-04T11:26:05.828Z,101639.19
2022-12-04T11:28:43.321Z,101650.84
2022-12-04T11:31:12.034Z,101639.50
2022-12-04T11:33:45.883Z,101639.84
2022-12-04T11:36:23.148Z,101645.66
2022-12-04T11:38:52.739Z,101643.28
2022-12-04T11:41:28.655Z,101635.38
2022-12-04T11:44:00.223Z,101643.84
2022-12-04T11:46:30.490Z,101645.25
2022-12-04T11:48:59.143Z,101647.84
2022-12-04T11:51:44.780Z,101636.88
2022-12-04T11:54:23.155Z,101647.78
2022-12-04T11:57:03.005Z,101641.13
2022-12-04T11:59:44.032Z,101634.81
2022-12-04T12:02:32.133Z,101628.91
2022-12-04T12:05:32.817Z,101609.56
2022-12-04T12:08:13.862Z,101620.09
2022-12-04T12:10:49.286Z,101616.03
2022-12-04T12:13:27.272Z,101617.69
2022-12-04T12:16:05.868Z,101612.34
2022-12-04T12:18:53.557Z,101607.56
2022-12-04T12:21:26.281Z,101600.56
2022-12-04T12:24:10.609Z,101595.19
2022-12-04T12:26:47.057Z,101588.84
2022-12-04T12:29:31.386Z,101598.78
2022-12-04T12:32:11.222Z,101592.41
2022-12-04T12:34:41.179Z,101588.06
2022-12-04T12:37:23.109Z,101586.53
2022-12-04T12:40:01.015Z,101586.06
2022-12-04T12:42:34.694Z,101587.13
2022-12-04T12:45:07.439Z,101585.91
2022-12-04T12:47:42.068Z,101589.63
2022-12-04T12:50:17.479Z,101596.50
2022-12-04T12:52:51.687Z,101595.72
2022-12-04T12:55:25.074Z,101584.63
2022-12-04T12:58:01.043Z,101588.00
2022-12-04T13:00:33.068Z,101582.59
2022-12-04T13:03:04.921Z,101589.03
2022-12-04T13:05:38.566Z,101585.41
2022-12-04T13:08:18.822Z,101592.13
2022-12-04T13:10:54.740Z,101592.06
2022-12-04T13:13:27.541Z,101597.25
2022-12-04T13:15:58.566Z,101592.28
2022-12-04T13:18:29.814Z,101589.00
2022-12-04T13:21:00.636Z,101585.66
2022-12-04T13:23:45.836Z,101582.25
2022-12-04T13:26:28.221Z,101582.88
2022-12-04T13:29:04.104Z,101577.50
2022-12-04T13:31:39.189Z,101577.94
2022-12-04T13:34:24.797Z,101576.16
2022-12-04T13:37:03.805Z,101570.06
2022-12-04T13:40:15.828Z,101571.59
2022-12-04T13:42:45.308Z,101568.44
2022-12-04T13:45:25.851Z,101569.88
2022-12-04T13:47:58.508Z,101584.13
2022-12-04T13:50:31.877Z,101588.00
2022-12-04T13:53:00.748Z,101584.88
2022-12-04T13:55:32.109Z,101592.28
2022-12-04T13:58:03.527Z,101582.53
2022-12-04T14:00:33.900Z,101593.03
2022-12-04T14:03:05.667Z,101584.38
2022-12-04T14:05:41.113Z,101584.75
2022-12-04T14:08:24.947Z,101570.81
2022-12-04T14:11:01.973Z,101570.03
2022-12-04T14:13:45.406Z,101569.09
2022-12-04T14:16:23.424Z,101563.31
2022-12-04T14:18:54.107Z,101572.53
2022-12-04T14:21:22.177Z,101566.91
2022-12-04T14:23:50.740Z,101576.47
2022-12-04T14:26:48.797Z,101573.31
2022-12-04T14:29:35.562Z,101572.31
2022-12-04T14:32:10.761Z,101563.81
2022-12-04T14:34:39.021Z,101566.97
2022-12-04T14:37:07.774Z,101559.13
2022-12-04T14:39:40.894Z,101561.97
2022-12-04T14:42:15.578Z,101569.16
2022-12-04T14:44:47.192Z,101560.03
2022-12-04T14:47:27.003Z,101546.06
2022-12-04T14:50:10.313Z,101565.06
2022-12-04T14:52:43.958Z,101568.28
2022-12-04T14:55:23.640Z,101569.63
2022-12-04T14:57:56.585Z,101580.13
2022-12-04T15:00:26.938Z,101589.34
2022-12-04T15:02:57.642Z,101595.50
2022-12-04T15:05:28.252Z,101593.19
2022-12-04T15:08:00.219Z,101595.03
2022-12-04T15:10:47.404Z,101597.22
2022-12-04T15:13:26.717Z,101599.06
2022-12-04T15:15:55.992Z,101599.41
2022-12-04T15:18:23.964Z,101600.41
2022-12-04T15:20:57.773Z,101599.09
2022-12-04T15:23:30.145Z,101593.47
2022-12-04T15:25:59.970Z,101593.13
2022-12-04T15:28:32.922Z,101589.25
2022-12-04T15:31:06.168Z,101587.41
2022-12-04T15:33:38.940Z,101588.72
2022-12-04T15:36:10.575Z,101584.22
2022-12-04T15:38:38.526Z,101587.06
2022-12-04T15:41:06.403Z,101588.25
2022-12-04T15:43:41.019Z,101581.81
2022-12-04T15:46:16.095Z,101592.16
2022-12-04T15:48:47.665Z,101597.00
2022-12-04T15:51:17.228Z,101592.88
2022-12-04T15:53:47.063Z,101597.22
2022-12-04T15:56:19.785Z,101597.72
2022-12-04T15:58:55.850Z,101590.72
2022-12-04T16:01:25.470Z,101603.03
2022-12-04T16:03:55.564Z,101598.53
2022-12-04T16:06:25.756Z,101604.19
2022-12-04T16:08:55.410Z,101609.34
2022-12-04T16:11:32.441Z,101596.00
2022-12-04T16:14:05.036Z,101599.50
2022-12-04T16:16:34.162Z,101601.00
2022-12-04T16:19:03.250Z,101595.00
2022-12-04T16:21:32.757Z,101605.66
2022-12-04T16:24:03.296Z,101605.19
2022-12-04T16:26:30.993Z,101613.38
2022-12-04T16:28:59.273Z,101584.72
2022-12-04T16:31:27.788Z,101614.34
2022-12-04T16:33:56.941Z,101609.59
2022-12-04T16:36:24.631Z,101611.88
2022-12-04T16:38:52.277Z,101615.47
2022-12-04T16:41:21.207Z,101605.84
2022-12-04T16:43:54.241Z,101613.53
2022-12-04T16:46:24.491Z,101598.72
2022-12-04T16:48:52.228Z,101610.28
2022-12-04T16:51:24.126Z,101612.63
2022-12-04T16:53:53.111Z,101608.19
2022-12-04T16:56:24.356Z,101615.41
2022-12-04T16:58:52.086Z,101620.84
2022-12-04T17:01:23.519Z,101611.53
2022-12-04T17:03:51.404Z,101609.78
2022-12-04T17:06:19.838Z,101607.47
2022-12-04T17:08:48.933Z,101598.50
2022-12-04T17:11:18.266Z,101615.03
2022-12-04T17:13:46.536Z,101610.97
2022-12-04T17:16:18.471Z,101612.16
2022-12-04T17:18:47.534Z,101617.53
2022-12-04T17:21:15.587Z,101625.84
2022-12-04T17:23:43.935Z,101621.31
2022-12-04T17:26:16.063Z,101619.81
2022-12-04T17:28:44.656Z,101628.47
2022-12-04T17:31:15.513Z,101629.94
2022-12-04T17:33:44.066Z,101625.50
2022-12-04T17:36:13.348Z,101638.09
2022-12-04T17:38:41.776Z,101629.97
2022-12-04T17:41:13.664Z,101636.84
2022-12-04T17:43:43.694Z,101630.66
2022-12-04T17:46:12.469Z,101635.53
2022-12-04T17:48:40.592Z,101648.06
2022-12-04T17:51:10.384Z,101644.84
2022-12-04T17:53:39.304Z,101644.09
2022-12-04T17:56:09.165Z,101638.75
2022-12-04T17:58:37.766Z,101640.91
2022-12-04T18:01:09.535Z,101653.38
2022-12-04T18:03:38.603Z,101645.75
2022-12-04T18:06:13.822Z,101650.97
2022-12-04T18:08:45.297Z,101647.31
2022-12-04T18:11:18.719Z,101653.31
2022-12-04T18:13:46.462Z,101649.00
2022-12-04T18:16:15.598Z,101640.97
2022-12-04T18:18:46.621Z,101637.56
2022-12-04T18:21:15.457Z,101634.69
2022-12-04T18:23:45.179Z,101639.81
2022-12-04T18:26:14.247Z,101636.22
2022-12-04T18:28:42.346Z,101630.00
2022-12-04T18:31:11.076Z,101629.06
2022-12-04T18:33:42.200Z,101631.09
2022-12-04T18:36:14.420Z,101629.44
2022-12-04T18:38:42.152Z,101630.97
2022-12-04T18:41:12.423Z,101635.00
2022-12-04T18:43:41.873Z,101633.88
2022-12-04T18:46:13.342Z,101636.75
2022-12-04T18:48:43.384Z,101633.06
2022-12-04T18:51:20.364Z,101636.22
2022-12-04T18:53:48.092Z,101629.91
2022-12-04T18:56:16.258Z,101621.63
2022-12-04T18:58:44.621Z,101613.81
2022-12-04T19:01:14.831Z,101621.03
2022-12-04T19:03:43.962Z,101618.53
2022-12-04T19:06:12.278Z,101617.34
2022-12-04T19:08:43.873Z,101621.88
2022-12-04T19:11:13.446Z,101626.47
2022-12-04T19:13:41.786Z,101633.47
2022-12-04T19:16:13.055Z,101639.44
2022-12-04T19:18:42.107Z,101633.88
2022-12-04T19:21:11.197Z,101636.06
2022-12-04T19:23:38.865Z,101638.81
2022-12-04T19:26:06.895Z,101632.53
2022-12-04T19:28:34.646Z,101626.69
2022-12-04T19:31:02.380Z,101635.81
2022-12-04T19:33:30.376Z,101647.88
2022-12-04T19:36:00.043Z,101653.94
2022-12-04T19:38:29.978Z,101650.84
2022-12-04T19:41:06.326Z,101648.34
2022-12-04T19:43:34.102Z,101644.84
2022-12-04T19:46:02.508Z,101644.19
2022-12-04T19:48:30.249Z,101645.06
2022-12-04T19:51:03.463Z,101641.72
2022-12-04T19:53:37.667Z,101650.94
2022-12-04T19:56:10.880Z,101646.25
2022-12-04T19:58:39.014Z,101645.94
2022-12-04T20:01:08.643Z,101645.28
2022-12-04T20:03:37.143Z,101649.13
2022-12-04T20:06:05.694Z,101641.13
2022-12-04T20:08:35.258Z,101652.50
2022-12-04T20:11:04.214Z,101654.00
2022-12-04T20:13:32.025Z,101644.97
2022-12-04T20:16:02.614Z,101656.00
2022-12-04T20:18:30.366Z,101644.97
2022-12-04T20:20:59.881Z,101643.31
2022-12-04T20:23:28.022Z,101645.50
2022-12-04T20:25:57.037Z,101646.16
2022-12-04T20:28:24.769Z,101647.69
2022-12-04T20:30:52.586Z,101647.69
2022-12-04T20:33:20.298Z,101647.34
2022-12-04T20:35:48.215Z,101651.84
2022-12-04T20:38:15.949Z,101649.88
2022-12-04T20:40:43.671Z,101651.06
2022-12-04T20:43:12.703Z,101643.53
2022-12-04T20:45:40.450Z,101644.34
2022-12-04T20:48:08.210Z,101646.84
2022-12-04T20:50:35.965Z,101652.38
2022-12-04T20:53:03.678Z,101654.03
2022-12-04T20:55:31.395Z,101650.88
2022-12-04T20:57:59.104Z,101652.53
2022-12-04T21:00:28.593Z,101651.88
2022-12-04T21:02:56.369Z,101662.72
2022-12-04T21:05:24.269Z,101654.25
2022-12-04T21:07:51.981Z,101657.75
2022-12-04T21:10:19.713Z,101660.06
2022-12-04T21:13:05.149Z,101665.22
2022-12-04T21:15:51.824Z,101664.06
2022-12-04T21:18:19.522Z,101656.91
2022-12-04T21:20:47.202Z,101665.72
2022-12-04T21:23:14.924Z,101663.38
2022-12-04T21:25:42.646Z,101660.72
2022-12-04T21:28:10.386Z,101659.06
2022-12-04T21:30:39.397Z,101652.53
2022-12-04T21:33:07.020Z,101657.88
2022-12-04T21:35:34.744Z,101660.91
2022-12-04T21:38:02.422Z,101654.72
2022-12-04T21:40:30.119Z,101651.06
2022-12-04T21:42:57.806Z,101654.72
2022-12-04T21:45:25.489Z,101653.91
2022-12-04T21:47:54.498Z,101660.06
2022-12-04T21:50:22.228Z,101654.72
2022-12-04T21:52:49.895Z,101650.41
2022-12-04T21:55:17.806Z,101656.06
2022-12-04T21:57:45.473Z,101653.22
2022-12-04T22:00:14.681Z,101649.75
2022-12-04T22:02:42.428Z,101651.56
2022-12-04T22:05:11.598Z,101653.41
2022-12-04T22:07:39.379Z,101653.41
2022-12-04T22:10:10.847Z,101650.75
2022-12-04T22:12:49.580Z,101653.94
2022-12-04T22:15:18.379Z,101657.78
2022-12-04T22:17:46.047Z,101657.78
2022-12-04T22:20:16.471Z,101672.81
2022-12-04T22:22:44.105Z,101664.16
2022-12-04T22:25:11.744Z,101661.78
2022-12-04T22:27:39.432Z,101660.13
2022-12-04T22:30:08.585Z,101664.63
2022-12-04T22:32:36.300Z,101669.81
2022-12-04T22:35:04.029Z,101668.47
2022-12-04T22:37:33.103Z,101676.16
2022-12-04T22:40:00.814Z,101667.97
2022-12-04T22:42:28.736Z,101659.63
2022-12-04T22:44:56.458Z,101658.63
2022-12-04T22:47:24.141Z,101662.31
2022-12-04T22:49:51.930Z,101660.81
2022-12-04T22:52:19.976Z,101665.81
2022-12-04T22:54:51.117Z,101669.16
2022-12-04T22:57:18.961Z,101676.03
2022-12-04T22:59:46.814Z,101667.50
2022-12-04T23:02:14.593Z,101674.16
2022-12-04T23:04:43.585Z,101672.97
2022-12-04T23:07:11.312Z,101673.81
2022-12-04T23:09:39.379Z,101671.31
2022-12-04T23:12:08.649Z,101677.16
2022-12-04T23:14:36.920Z,101673.47
2022-12-04T23:17:04.985Z,101674.47
2022-12-04T23:19:32.700Z,101676.16
2022-12-04T23:22:00.588Z,101675.47
2022-12-04T23:24:28.333Z,101666.66
2022-12-04T23:26:55.976Z,101665.81
2022-12-04T23:32:12.674Z,101651.00
2022-12-04T23:34:40.444Z,101662.16
2022-12-04T23:37:08.155Z,101657.16
2022-12-04T23:39:35.892Z,101657.31
2022-12-04T23:42:03.579Z,101655.31
2022-12-04T23:44:32.839Z,101655.00
2022-12-04T23:47:00.610Z,101659.81
2022-12-04T23:49:29.215Z,101662.31
2022-12-04T23:51:56.871Z,101664.16
2022-12-04T23:54:24.522Z,101655.31
2022-12-04T23:56:52.201Z,101662.47
2022-12-04T23:59:21.933Z,101657.97
